createdAt,value
2023-01-10T00:00:57.492Z,5.40
2023-01-10T00:03:28.414Z,5.40
2023-01-10T00:05:55.867Z,5.40
2023-01-10T00:08:23.168Z,5.40
2023-01-10T00:10:50.636Z,5.30
2023-01-10T00:13:24.721Z,5.30
2023-01-10T00:15:54.365Z,5.20
2023-01-10T00:18:22.104Z,5.20
2023-01-10T00:20:50.019Z,5.10
2023-01-10T00:23:18.477Z,5.10
2023-01-10T00:25:46.578Z,5.10
2023-01-10T00:28:20.353Z,5.10
2023-01-10T00:30:57.342Z,5.20
2023-01-10T00:33:24.653Z,5.20
2023-01-10T00:35:52.175Z,5.20
2023-01-10T00:38:19.401Z,5.20
2023-01-10T00:40:47.119Z,5.20
2023-01-10T00:43:32.958Z,5.20
2023-01-10T00:46:01.214Z,5.20
2023-01-10T00:48:28.991Z,5.10
2023-01-10T00:50:56.493Z,5.10
2023-01-10T00:53:23.641Z,5.10
2023-01-10T00:55:51.175Z,5.10
2023-01-10T00:58:18.297Z,5.00
2023-01-10T01:00:52.183Z,5.00
2023-01-10T01:03:20.977Z,5.00
2023-01-10T01:05:49.113Z,4.90
2023-01-10T01:08:17.586Z,4.90
2023-01-10T01:10:45.562Z,4.90
2023-01-10T01:13:17.238Z,4.80
2023-01-10T01:15:45.394Z,4.80
2023-01-10T01:18:15.236Z,4.80
2023-01-10T01:20:43.126Z,4.80
2023-01-10T01:23:10.294Z,4.80
2023-01-10T01:25:37.803Z,4.80
2023-01-10T01:28:05.338Z,4.70
2023-01-10T01:30:32.792Z,4.70
2023-01-10T01:32:59.985Z,4.70
2023-01-10T01:35:27.679Z,4.80
2023-01-10T01:37:54.913Z,4.80
2023-01-10T01:40:23.237Z,4.80
2023-01-10T01:42:55.676Z,4.80
2023-01-10T01:45:23.152Z,4.80
2023-01-10T01:47:57.962Z,4.80
2023-01-10T01:50:36.825Z,4.80
2023-01-10T01:53:11.323Z,4.80
2023-01-10T01:55:39.910Z,4.80
2023-01-10T01:58:13.780Z,4.80
2023-01-10T02:00:41.256Z,4.80
2023-01-10T02:03:08.924Z,4.80
2023-01-10T02:05:39.134Z,4.80
2023-01-10T02:08:06.600Z,4.80
2023-01-10T02:10:53.394Z,4.70
2023-01-10T02:13:24.493Z,4.70
2023-01-10T02:15:52.023Z,4.70
2023-01-10T02:18:21.164Z,4.70
2023-01-10T02:21:04.993Z,4.70
2023-01-10T02:24:10.760Z,4.70
2023-01-10T02:27:08.095Z,4.70
2023-01-10T02:30:05.451Z,4.70
2023-01-10T02:32:56.644Z,4.70
2023-01-10T02:35:43.478Z,4.70
2023-01-10T02:38:50.034Z,4.70
2023-01-10T02:41:41.929Z,4.70
2023-01-10T02:44:13.269Z,4.70
2023-01-10T02:46:41.479Z,4.60
2023-01-10T02:49:08.960Z,4.60
2023-01-10T02:51:36.124Z,4.70
2023-01-10T02:54:13.730Z,4.70
2023-01-10T02:57:17.619Z,4.70
2023-01-10T03:00:15.360Z,4.70
2023-01-10T03:03:08.264Z,4.80
2023-01-10T03:06:07.830Z,4.80
2023-01-10T03:08:51.890Z,4.80
2023-01-10T03:11:40.012Z,4.80
2023-01-10T03:14:14.105Z,4.80
2023-01-10T03:16:46.253Z,4.80
2023-01-10T03:19:17.413Z,4.90
2023-01-10T03:21:44.905Z,4.90
2023-01-10T03:24:19.148Z,4.90
2023-01-10T03:27:06.306Z,4.90
2023-01-10T03:29:48.344Z,4.90
2023-01-10T03:32:20.121Z,4.90
2023-01-10T03:34:47.693Z,4.90
2023-01-10T03:37:32.529Z,4.90
2023-01-10T03:40:23.250Z,4.90
2023-01-10T03:43:51.242Z,4.90
2023-01-10T03:46:36.182Z,4.90
2023-01-10T03:49:06.509Z,4.90
2023-01-10T03:51:34.882Z,4.90
2023-01-10T03:54:03.121Z,4.90
2023-01-10T03:56:30.323Z,4.90
2023-01-10T03:58:58.555Z,4.90
2023-01-10T04:01:25.837Z,4.80
2023-01-10T04:03:53.378Z,4.80
2023-01-10T04:06:20.537Z,4.80
2023-01-10T04:08:47.967Z,4.70
2023-01-10T04:11:15.157Z,4.70
2023-01-10T04:13:42.721Z,4.70
2023-01-10T04:16:09.888Z,4.80
2023-01-10T04:18:37.432Z,4.80
2023-01-10T04:21:04.926Z,4.80
2023-01-10T04:23:32.719Z,4.90
2023-01-10T04:25:59.900Z,4.90
2023-01-10T04:28:27.306Z,4.80
2023-01-10T04:30:54.458Z,4.90
2023-01-10T04:33:21.968Z,4.80
2023-01-10T04:35:50.693Z,4.90
2023-01-10T04:38:18.523Z,4.90
2023-01-10T04:40:51.993Z,4.90
2023-01-10T04:43:19.682Z,4.80
2023-01-10T04:45:46.923Z,4.90
2023-01-10T04:48:14.555Z,4.90
2023-01-10T04:50:41.751Z,4.90
2023-01-10T04:53:09.129Z,5.00
2023-01-10T04:55:36.294Z,5.00
2023-01-10T04:58:04.644Z,5.00
2023-01-10T05:00:31.724Z,4.80
2023-01-10T05:02:59.337Z,4.80
2023-01-10T05:05:26.501Z,4.70
2023-01-10T05:07:54.070Z,4.80
2023-01-10T05:10:21.196Z,4.70
2023-01-10T05:12:48.812Z,4.60
2023-01-10T05:15:16.071Z,4.60
2023-01-10T05:17:43.613Z,4.70
2023-01-10T05:20:13.417Z,4.70
2023-01-10T05:22:40.873Z,4.70
2023-01-10T05:25:08.341Z,4.70
2023-01-10T05:27:35.801Z,4.70
2023-01-10T05:30:03.048Z,4.80
2023-01-10T05:32:30.625Z,4.80
2023-01-10T05:34:57.740Z,4.80
2023-01-10T05:37:25.265Z,4.80
2023-01-10T05:39:52.464Z,4.80
2023-01-10T05:42:19.865Z,4.80
2023-01-10T05:44:46.953Z,4.90
2023-01-10T05:47:14.353Z,4.80
2023-01-10T05:49:41.787Z,4.80
2023-01-10T05:52:09.261Z,4.80
2023-01-10T05:54:36.437Z,4.80
2023-01-10T05:57:04.062Z,4.90
2023-01-10T05:59:31.168Z,4.90
2023-01-10T06:01:58.773Z,4.90
2023-01-10T06:04:26.629Z,4.90
2023-01-10T06:06:54.046Z,4.90
2023-01-10T06:09:21.237Z,4.80
2023-01-10T06:11:48.650Z,4.90
2023-01-10T06:14:19.312Z,4.90
2023-01-10T06:16:47.776Z,5.00
2023-01-10T06:19:15.235Z,5.00
2023-01-10T06:21:42.778Z,5.00
2023-01-10T06:24:10.304Z,5.00
2023-01-10T06:26:37.734Z,5.00
2023-01-10T06:29:04.959Z,5.00
2023-01-10T06:31:32.485Z,4.90
2023-01-10T06:33:59.680Z,5.00
2023-01-10T06:36:27.061Z,5.00
2023-01-10T06:38:54.190Z,5.00
2023-01-10T06:41:21.598Z,5.00
2023-01-10T06:43:49.898Z,5.00
2023-01-10T06:46:19.583Z,5.00
2023-01-10T06:48:47.795Z,5.00
2023-01-10T06:51:19.136Z,5.00
2023-01-10T06:53:47.276Z,5.00
2023-01-10T06:56:14.686Z,5.00
2023-01-10T06:58:41.877Z,5.00
2023-01-10T07:01:18.974Z,5.10
2023-01-10T07:03:46.902Z,5.20
2023-01-10T07:06:14.847Z,5.20
2023-01-10T07:08:45.279Z,5.20
2023-01-10T07:11:14.842Z,5.20
2023-01-10T07:13:42.072Z,5.20
2023-01-10T07:16:13.066Z,5.20
2023-01-10T07:18:42.134Z,5.20
2023-01-10T07:21:10.454Z,5.20
2023-01-10T07:23:38.150Z,5.20
2023-01-10T07:26:08.301Z,5.10
2023-01-10T07:28:35.623Z,5.10
2023-01-10T07:31:06.863Z,5.10
2023-01-10T07:33:34.068Z,5.10
2023-01-10T07:36:02.269Z,5.10
2023-01-10T07:38:30.034Z,5.20
2023-01-10T07:40:57.433Z,5.20
2023-01-10T07:43:24.595Z,5.20
2023-01-10T07:45:52.136Z,5.20
2023-01-10T07:48:19.370Z,5.20
2023-01-10T07:50:46.781Z,5.10
2023-01-10T07:53:14.141Z,5.00
2023-01-10T07:55:43.027Z,5.00
2023-01-10T07:58:10.626Z,4.90
2023-01-10T08:00:38.226Z,4.90
2023-01-10T08:03:06.410Z,4.90
2023-01-10T08:05:33.994Z,4.90
2023-01-10T08:08:05.815Z,4.90
2023-01-10T08:10:34.771Z,4.90
2023-01-10T08:13:17.154Z,4.80
2023-01-10T08:15:47.098Z,4.90
2023-01-10T08:18:14.356Z,4.80
2023-01-10T08:20:41.816Z,4.80
2023-01-10T08:23:08.947Z,4.70
2023-01-10T08:25:38.716Z,4.70
2023-01-10T08:28:06.687Z,4.80
2023-01-10T08:30:34.133Z,4.80
2023-01-10T08:33:05.627Z,4.80
2023-01-10T08:35:43.531Z,4.90
2023-01-10T08:38:11.706Z,5.00
2023-01-10T08:40:39.206Z,5.00
2023-01-10T08:43:10.689Z,4.90
2023-01-10T08:45:38.672Z,4.90
2023-01-10T08:48:06.745Z,4.90
2023-01-10T08:50:34.180Z,5.00
2023-01-10T08:53:01.942Z,5.00
2023-01-10T08:55:31.173Z,5.10
2023-01-10T08:58:02.228Z,5.10
2023-01-10T09:00:30.587Z,5.00
2023-01-10T09:02:58.119Z,5.00
2023-01-10T09:05:27.708Z,5.20
2023-01-10T09:08:00.461Z,5.30
2023-01-10T09:10:31.304Z,5.20
2023-01-10T09:13:01.773Z,5.40
2023-01-10T09:15:35.768Z,5.60
2023-01-10T09:18:05.347Z,5.40
2023-01-10T09:20:36.170Z,5.40
2023-01-10T09:23:11.221Z,5.40
2023-01-10T09:25:38.860Z,5.40
2023-01-10T09:28:06.361Z,5.60
2023-01-10T09:30:33.975Z,5.40
2023-01-10T09:33:01.499Z,5.40
2023-01-10T09:35:30.835Z,5.30
2023-01-10T09:38:01.163Z,5.30
2023-01-10T09:40:31.212Z,5.30
2023-01-10T09:43:05.854Z,5.40
2023-01-10T09:45:44.815Z,5.30
2023-01-10T09:49:10.149Z,5.40
2023-01-10T09:51:42.108Z,5.60
2023-01-10T09:54:27.032Z,5.70
2023-01-10T09:56:56.237Z,5.80
2023-01-10T09:59:26.311Z,5.90
2023-01-10T10:02:00.757Z,5.80
2023-01-10T10:04:37.528Z,5.80
2023-01-10T10:07:12.951Z,5.90
2023-01-10T10:09:40.844Z,6.00
2023-01-10T10:12:40.670Z,6.20
2023-01-10T10:15:46.263Z,6.10
2023-01-10T10:18:43.413Z,6.00
2023-01-10T10:21:24.015Z,6.00
2023-01-10T10:24:16.815Z,6.10
2023-01-10T10:26:59.877Z,6.00
2023-01-10T10:29:58.913Z,6.10
2023-01-10T10:32:45.576Z,6.10
2023-01-10T10:35:32.150Z,6.10
2023-01-10T10:38:09.546Z,6.50
2023-01-10T10:40:42.561Z,6.60
2023-01-10T10:43:21.681Z,6.70
2023-01-10T10:45:55.612Z,6.50
2023-01-10T10:48:36.684Z,6.40
2023-01-10T10:51:34.423Z,6.20
2023-01-10T10:54:01.736Z,6.00
2023-01-10T10:56:30.421Z,5.90
2023-01-10T10:58:59.876Z,6.00
2023-01-10T11:01:27.640Z,6.20
2023-01-10T11:04:05.382Z,6.20
2023-01-10T11:06:35.515Z,6.00
2023-01-10T11:09:05.238Z,6.10
2023-01-10T11:11:34.349Z,6.10
2023-01-10T11:14:07.051Z,5.90
2023-01-10T11:16:39.012Z,6.00
2023-01-10T11:19:20.114Z,6.00
2023-01-10T11:21:57.390Z,6.10
2023-01-10T11:24:36.279Z,6.20
2023-01-10T11:27:20.339Z,6.20
2023-01-10T11:29:50.753Z,6.30
2023-01-10T11:32:22.397Z,6.20
2023-01-10T11:34:55.430Z,6.30
2023-01-10T11:37:32.616Z,6.20
2023-01-10T11:40:20.113Z,6.30
2023-01-10T11:42:47.882Z,6.10
2023-01-10T11:45:17.840Z,6.10
2023-01-10T11:47:49.627Z,6.00
2023-01-10T11:50:23.454Z,6.00
2023-01-10T11:52:51.812Z,5.90
2023-01-10T11:55:22.507Z,6.00
2023-01-10T11:58:22.263Z,6.00
2023-01-10T12:00:50.560Z,6.10
2023-01-10T12:03:20.614Z,6.10
2023-01-10T12:06:02.203Z,5.90
2023-01-10T12:08:34.182Z,5.90
2023-01-10T12:11:15.440Z,5.90
2023-01-10T12:13:53.882Z,6.00
2023-01-10T12:16:29.517Z,6.00
2023-01-10T12:19:02.348Z,6.10
2023-01-10T12:21:38.511Z,6.20
2023-01-10T12:24:28.415Z,6.00
2023-01-10T12:26:56.383Z,6.30
2023-01-10T12:29:31.735Z,6.20
2023-01-10T12:32:01.191Z,6.20
2023-01-10T12:34:53.170Z,6.10
2023-01-10T12:37:47.530Z,6.20
2023-01-10T12:40:30.276Z,6.30
2023-01-10T12:43:36.272Z,6.40
2023-01-10T12:46:41.005Z,6.40
2023-01-10T12:49:26.376Z,6.40
2023-01-10T12:51:56.247Z,6.20
2023-01-10T12:54:28.633Z,6.10
2023-01-10T12:56:59.060Z,6.10
2023-01-10T12:59:54.883Z,6.00
2023-01-10T13:02:25.387Z,6.00
2023-01-10T13:04:58.517Z,6.10
2023-01-10T13:07:32.031Z,6.20
2023-01-10T13:10:03.242Z,6.30
2023-01-10T13:12:37.619Z,6.20
2023-01-10T13:15:24.379Z,6.10
2023-01-10T13:18:03.594Z,6.00
2023-01-10T13:20:44.326Z,5.90
2023-01-10T13:23:33.653Z,5.90
2023-01-10T13:26:08.865Z,5.80
2023-01-10T13:28:39.693Z,5.70
2023-01-10T13:31:24.027Z,5.60
2023-01-10T13:33:59.899Z,5.50
2023-01-10T13:36:31.438Z,5.60
2023-01-10T13:39:04.745Z,5.70
2023-01-10T13:42:18.109Z,5.70
2023-01-10T13:45:00.790Z,5.60
2023-01-10T13:47:40.024Z,5.70
2023-01-10T13:50:36.135Z,5.70
2023-01-10T13:53:04.326Z,5.80
2023-01-10T13:55:43.399Z,5.90
2023-01-10T13:58:16.477Z,5.90
2023-01-10T14:01:11.610Z,6.00
2023-01-10T14:03:48.932Z,5.80
2023-01-10T14:06:30.867Z,5.80
2023-01-10T14:09:24.500Z,5.70
2023-01-10T14:11:54.685Z,5.70
2023-01-10T14:14:26.611Z,5.60
2023-01-10T14:16:57.720Z,5.60
2023-01-10T14:19:29.878Z,5.50
2023-01-10T14:21:59.643Z,5.50
2023-01-10T14:24:31.537Z,5.50
2023-01-10T14:27:01.828Z,5.50
2023-01-10T14:29:32.222Z,5.60
2023-01-10T14:32:01.398Z,5.60
2023-01-10T14:34:31.259Z,5.70
2023-01-10T14:37:01.637Z,5.60
2023-01-10T14:39:30.055Z,5.50
2023-01-10T14:42:05.154Z,5.40
2023-01-10T14:45:00.210Z,5.50
2023-01-10T14:47:34.824Z,5.50
2023-01-10T14:50:06.134Z,5.40
2023-01-10T14:52:34.204Z,5.40
2023-01-10T14:55:11.937Z,5.30
2023-01-10T14:57:40.019Z,5.30
2023-01-10T15:00:09.426Z,5.20
2023-01-10T15:02:39.734Z,5.20
2023-01-10T15:05:16.388Z,5.20
2023-01-10T15:07:44.146Z,5.30
2023-01-10T15:10:41.543Z,5.30
2023-01-10T15:13:14.337Z,5.20
2023-01-10T15:15:41.663Z,5.20
2023-01-10T15:18:44.488Z,5.30
2023-01-10T15:21:14.023Z,5.30
2023-01-10T15:23:44.030Z,5.30
2023-01-10T15:26:16.360Z,5.30
2023-01-10T15:28:49.309Z,5.30
2023-01-10T15:31:17.105Z,5.30
2023-01-10T15:33:55.915Z,5.40
2023-01-10T15:36:27.197Z,5.30
2023-01-10T15:38:55.196Z,5.30
2023-01-10T15:41:24.205Z,5.30
2023-01-10T15:43:54.348Z,5.30
2023-01-10T15:46:28.357Z,5.30
2023-01-10T15:49:04.419Z,5.30
2023-01-10T15:51:35.946Z,5.30
2023-01-10T15:54:05.468Z,5.30
2023-01-10T15:56:56.370Z,5.40
2023-01-10T15:59:26.403Z,5.30
2023-01-10T16:01:57.394Z,5.40
2023-01-10T16:04:25.258Z,5.30
2023-01-10T16:06:55.058Z,5.30
2023-01-10T16:09:23.232Z,5.40
2023-01-10T16:12:10.537Z,5.30
2023-01-10T16:14:38.078Z,5.30
2023-01-10T16:17:05.755Z,5.40
2023-01-10T16:19:34.421Z,5.40
2023-01-10T16:22:02.011Z,5.40
2023-01-10T16:24:34.984Z,5.40
2023-01-10T16:27:06.147Z,5.40
2023-01-10T16:29:34.211Z,5.40
2023-01-10T16:32:01.415Z,5.40
2023-01-10T16:34:28.929Z,5.40
2023-01-10T16:36:56.142Z,5.40
2023-01-10T16:39:23.997Z,5.50
2023-01-10T16:42:09.689Z,5.50
2023-01-10T16:44:37.125Z,5.50
2023-01-10T16:47:06.924Z,5.60
2023-01-10T16:49:34.761Z,5.50
2023-01-10T16:52:03.145Z,5.50
2023-01-10T16:54:31.206Z,5.50
2023-01-10T16:56:58.446Z,5.50
2023-01-10T16:59:25.893Z,5.50
2023-01-10T17:01:58.346Z,5.50
2023-01-10T17:04:30.544Z,5.50
2023-01-10T17:06:59.148Z,5.60
2023-01-10T17:09:29.130Z,5.60
2023-01-10T17:12:03.554Z,5.60
2023-01-10T17:14:34.260Z,5.50
2023-01-10T17:17:04.566Z,5.60
2023-01-10T17:19:32.020Z,5.60
2023-01-10T17:22:00.248Z,5.60
2023-01-10T17:24:29.703Z,5.70
2023-01-10T17:26:57.030Z,5.70
2023-01-10T17:29:24.720Z,5.70
2023-01-10T17:31:51.852Z,5.70
2023-01-10T17:34:19.422Z,5.70
2023-01-10T17:36:46.569Z,5.70
2023-01-10T17:39:14.011Z,5.70
2023-01-10T17:41:41.177Z,5.70
2023-01-10T17:44:10.037Z,5.70
2023-01-10T17:46:37.325Z,5.70
2023-01-10T17:49:04.891Z,5.80
2023-01-10T17:51:32.036Z,5.80
2023-01-10T17:53:59.840Z,5.80
2023-01-10T17:56:27.018Z,5.70
2023-01-10T17:58:54.501Z,5.70
2023-01-10T18:01:25.490Z,5.70
2023-01-10T18:03:53.379Z,5.70
2023-01-10T18:06:25.147Z,5.60
2023-01-10T18:08:53.056Z,5.70
2023-01-10T18:11:20.582Z,5.70
2023-01-10T18:13:48.027Z,5.70
2023-01-10T18:16:15.176Z,5.70
2023-01-10T18:18:42.641Z,5.70
2023-01-10T18:21:17.913Z,5.70
2023-01-10T18:23:46.792Z,5.70
2023-01-10T18:26:14.581Z,5.70
2023-01-10T18:28:43.739Z,5.60
2023-01-10T18:31:17.142Z,5.60
2023-01-10T18:33:45.781Z,5.60
2023-01-10T18:36:15.958Z,5.60
2023-01-10T18:38:45.702Z,5.60
2023-01-10T18:41:14.206Z,5.60
2023-01-10T18:43:41.908Z,5.70
2023-01-10T18:46:20.404Z,5.60
2023-01-10T18:48:51.098Z,5.70
2023-01-10T18:51:19.237Z,5.70
2023-01-10T18:53:47.688Z,5.70
2023-01-10T18:56:16.073Z,5.70
2023-01-10T18:58:43.540Z,5.60
2023-01-10T19:01:13.916Z,5.60
2023-01-10T19:03:42.254Z,5.60
2023-01-10T19:06:12.581Z,5.60
2023-01-10T19:08:40.594Z,5.60
2023-01-10T19:11:14.552Z,5.50
2023-01-10T19:13:46.789Z,5.50
2023-01-10T19:16:34.940Z,5.50
2023-01-10T19:19:06.018Z,5.50
2023-01-10T19:21:34.090Z,5.60
2023-01-10T19:24:04.868Z,5.60
2023-01-10T19:26:32.468Z,5.60
2023-01-10T19:29:02.010Z,5.60
2023-01-10T19:31:29.904Z,5.60
2023-01-10T19:34:01.098Z,5.60
2023-01-10T19:36:28.984Z,5.60
2023-01-10T19:38:58.138Z,5.60
2023-01-10T19:41:27.163Z,5.50
2023-01-10T19:43:59.514Z,5.50
2023-01-10T19:46:27.832Z,5.50
2023-01-10T19:48:56.297Z,5.50
2023-01-10T19:51:23.551Z,5.40
2023-01-10T19:53:51.293Z,5.40
2023-01-10T19:56:22.898Z,5.40
2023-01-10T19:58:50.680Z,5.30
2023-01-10T20:01:21.507Z,5.30
2023-01-10T20:03:49.314Z,5.30
2023-01-10T20:06:21.555Z,5.30
2023-01-10T20:08:49.272Z,5.20
2023-01-10T20:11:17.965Z,5.20
2023-01-10T20:13:45.534Z,5.40
2023-01-10T20:16:17.937Z,5.40
2023-01-10T20:18:46.944Z,5.30
2023-01-10T20:21:15.844Z,5.30
2023-01-10T20:23:44.474Z,5.20
2023-01-10T20:26:15.575Z,5.30
2023-01-10T20:28:46.363Z,5.40
2023-01-10T20:31:22.768Z,5.40
2023-01-10T20:33:50.712Z,5.40
2023-01-10T20:36:20.336Z,5.30
2023-01-10T20:38:48.428Z,5.30
2023-01-10T20:41:22.056Z,5.30
2023-01-10T20:43:50.258Z,5.30
2023-01-10T20:46:22.551Z,5.30
2023-01-10T20:48:51.144Z,5.40
2023-01-10T20:51:21.161Z,5.40
2023-01-10T20:53:49.938Z,5.50
2023-01-10T20:56:21.039Z,5.50
2023-01-10T20:58:49.099Z,5.50
2023-01-10T21:01:28.628Z,5.40
2023-01-10T21:03:56.648Z,5.40
2023-01-10T21:06:24.746Z,5.40
2023-01-10T21:08:52.763Z,5.40
2023-01-10T21:11:20.799Z,5.40
2023-01-10T21:13:48.513Z,5.30
2023-01-10T21:16:19.462Z,5.30
2023-01-10T21:18:47.676Z,5.30
2023-01-10T21:21:18.603Z,5.30
2023-01-10T21:23:46.232Z,5.30
2023-01-10T21:26:14.884Z,5.40
2023-01-10T21:28:47.841Z,5.40
2023-01-10T21:31:17.418Z,5.40
2023-01-10T21:33:45.327Z,5.50
2023-01-10T21:36:13.765Z,5.50
2023-01-10T21:38:41.640Z,5.50
2023-01-10T21:41:12.449Z,5.50
2023-01-10T21:43:44.436Z,5.50
2023-01-10T21:46:12.164Z,5.60
2023-01-10T21:48:40.012Z,5.60
2023-01-10T21:51:07.224Z,5.60
2023-01-10T21:53:34.932Z,5.60
2023-01-10T21:56:02.325Z,5.60
2023-01-10T21:58:29.985Z,5.60
2023-01-10T22:00:59.369Z,5.60
2023-01-10T22:03:27.216Z,5.50
2023-01-10T22:05:54.601Z,5.60
2023-01-10T22:08:22.233Z,5.60
2023-01-10T22:10:49.456Z,5.60
2023-01-10T22:13:16.911Z,5.60
2023-01-10T22:15:44.530Z,5.70
2023-01-10T22:18:11.975Z,5.70
2023-01-10T22:20:39.226Z,5.70
2023-01-10T22:23:06.614Z,5.70
2023-01-10T22:25:33.816Z,5.70
2023-01-10T22:28:01.172Z,5.80
2023-01-10T22:30:28.390Z,5.80
2023-01-10T22:32:57.248Z,5.90
2023-01-10T22:35:26.248Z,5.90
2023-01-10T22:37:55.723Z,5.90
2023-01-10T22:40:23.830Z,6.00
2023-01-10T22:42:54.795Z,6.00
2023-01-10T22:45:22.119Z,5.90
2023-01-10T22:47:50.136Z,5.90
2023-01-10T22:50:20.046Z,5.90
2023-01-10T22:52:48.959Z,5.80
2023-01-10T22:55:17.618Z,5.70
2023-01-10T22:57:48.131Z,5.70
2023-01-10T23:00:16.242Z,5.80
2023-01-10T23:02:43.855Z,5.70
2023-01-10T23:05:11.273Z,5.60
2023-01-10T23:07:38.767Z,5.70
2023-01-10T23:10:10.139Z,5.70
2023-01-10T23:12:41.964Z,5.80
2023-01-10T23:15:09.559Z,5.80
2023-01-10T23:17:37.278Z,5.80
2023-01-10T23:20:05.490Z,5.80
2023-01-10T23:22:33.081Z,5.80
2023-01-10T23:25:00.341Z,5.80
2023-01-10T23:27:27.747Z,5.80
2023-01-10T23:29:54.911Z,5.80
2023-01-10T23:32:22.429Z,5.80
2023-01-10T23:34:49.530Z,5.90
2023-01-10T23:37:17.040Z,5.80
2023-01-10T23:39:44.179Z,5.80
2023-01-10T23:42:11.606Z,5.80
2023-01-10T23:44:39.138Z,5.80
2023-01-10T23:47:06.632Z,5.80
2023-01-10T23:49:34.816Z,5.90
2023-01-10T23:52:02.668Z,5.80
2023-01-10T23:54:29.917Z,5.80
2023-01-10T23:56:57.548Z,5.90
2023-01-10T23:59:25.112Z,5.90
